Ocean Exporter — VRXJ4 — position and weather

sailwx.info

Track history (hours):
 
Tides and Currents Weather Stations Pressure Air Temp Water Temp Dewpoint Dewpoint Depression Visibility Wind Speed Wind Dir Waves Ship Positions

Ocean Exporter

Last reported at 2018-Jun-20 01:16 UTC. Time now 2018-Jun-21 13:50 UTC.
Position N 58°49' E 004°29'.

Length 169 m; draft 5.3 m.

Type: Cargo ship. MMSI: 477980000.

Date/timePositionNaut miles runAvg speedWind from/ knotsBaromVisibWave heightAir tempDewpointWater temp
2018-Jun-20 01:16N 58°49' E 004°29'3 9.8
2018-Jun-20 00:55N 58°47' E 004°34'4 8.9
2018-Jun-20 00:30N 58°44' E 004°39'4 9.2
2018-Jun-20 00:00N 58°41' E 004°46'6 9.7
2018-Jun-19 23:24N 58°37' E 004°54'4 9.4
2018-Jun-19 23:00N 58°34' E 004°59'5 9.4
2018-Jun-19 22:29N 58°31' E 005°05'5 9.2
2018-Jun-19 21:59N 58°28' E 005°12'4 9.2
2018-Jun-19 21:30N 58°24' E 005°18'5 9.2
2018-Jun-19 20:59N 58°21' E 005°24'4 8.3
2018-Jun-19 20:30N 58°19' E 005°30'4 8.1
2018-Jun-19 20:00N 58°16' E 005°36'4 7.8
2018-Jun-19 19:30N 58°14' E 005°42'4 7.5
2018-Jun-19 19:00N 58°11' E 005°47'4 7.3
2018-Jun-19 18:30N 58°09' E 005°52'3 6.7
2018-Jun-19 18:00N 58°06' E 005°57'3 6.1
2018-Jun-19 17:30N 58°05' E 006°02'3 5.6
2018-Jun-19 17:00N 58°03' E 006°05'3 5.2
2018-Jun-19 16:30N 58°01' E 006°09'3 5.2
2018-Jun-19 16:00N 57°59' E 006°13'3 5.2
2018-Jun-19 15:29N 57°57' E 006°16'3 5.1
2018-Jun-19 14:57N 57°55' E 006°20'2 5.0
2018-Jun-19 14:27N 57°53' E 006°23'11 7.2
2018-Jun-19 12:56N 57°48' E 006°40'510.8
2018-Jun-19 12:28N 57°47' E 006°50'511.7
2018-Jun-19 12:00N 57°47' E 006°60'612.3
2018-Jun-19 11:30N 57°47' E 007°12'612.5
2018-Jun-19 10:59N 57°46' E 007°24'612.4
2018-Jun-19 10:30N 57°46' E 007°35'612.3
2018-Jun-19 10:00N 57°46' E 007°46'612.1
2018-Jun-19 09:30N 57°46' E 007°58'611.8
2018-Jun-19 09:00N 57°45' E 008°09'8811.0
2018-Jun-19 01:03N 57°46' E 010°53'113.0
2018-Jun-19 00:59N 57°45' E 010°54'612.8
2018-Jun-19 00:29N 57°40' E 011°02'613.0
2018-Jun-19 00:00N 57°36' E 011°10'612.5
2018-Jun-18 23:30N 57°32' E 011°19'612.1
2018-Jun-18 23:00N 57°27' E 011°27'612.7
2018-Jun-18 22:30N 57°22' E 011°31'612.7
2018-Jun-18 22:00N 57°15' E 011°35'7012.6
2018-Jun-18 16:27N 56°11' E 012°24'612.5
2018-Jun-18 16:00N 56°07' E 012°32'510.4
2018-Jun-18 15:30N 56°04' E 012°39'5 9.0
2018-Jun-18 15:00N 55°59' E 012°41'611.5
2018-Jun-18 14:30N 55°54' E 012°44'611.9
2018-Jun-18 14:00N 55°48' E 012°47'612.0
2018-Jun-18 13:30N 55°43' E 012°53'510.1
2018-Jun-18 13:00N 55°38' E 012°55'510.6
2018-Jun-18 12:30N 55°34' E 012°49'510.7
2018-Jun-18 12:00N 55°30' E 012°43'5 9.8
2018-Jun-18 11:30N 55°25' E 012°42'612.5
2018-Jun-18 11:00N 55°19' E 012°42'713.6
2018-Jun-18 10:30N 55°16' E 012°53'713.5
2018-Jun-18 10:00N 55°12' E 013°03'7812.6
2018-Jun-18 03:49N 54°42' E 015°08'5113.9
2018-Jun-18 00:10N 54°50' E 016°35'214.1
2018-Jun-18 00:00N 54°50' E 016°40'3914.0
2018-Jun-17 21:14N 54°57' E 017°46'513.7
2018-Jun-17 20:54N 54°57' E 017°54'613.5
2018-Jun-17 20:29N 54°58' E 018°03'713.6
2018-Jun-17 20:00N 54°58' E 018°15'713.8
2018-Jun-17 19:30N 54°59' E 018°27'612.5
2018-Jun-17 18:59N 54°58' E 018°38'613.0
2018-Jun-17 18:30N 54°54' E 018°47'713.2
2018-Jun-17 18:00N 54°50' E 018°56'612.9
2018-Jun-17 17:30N 54°44' E 019°01'612.0
2018-Jun-17 17:00N 54°38' E 018°56'4 9.0
2018-Jun-17 16:30N 54°34' E 018°53'612.0
2018-Jun-17 16:00N 54°31' E 018°44'510.0
2018-Jun-17 15:31N 54°32' E 018°35'2 3.2
2018-Jun-17 15:01N 54°32' E 018°33'0 0.0
2018-Jun-17 14:29N 54°32' E 018°33'0 0.0
2018-Jun-17 13:59N 54°32' E 018°33'0 0.0
2018-Jun-17 13:29N 54°32' E 018°33'0 0.0
2018-Jun-17 12:59N 54°32' E 018°33'0 0.0
2018-Jun-17 12:29N 54°32' E 018°33'0 0.0
2018-Jun-17 11:59N 54°32' E 018°33'0 0.0
2018-Jun-17 11:28N 54°32' E 018°33'0 0.0
2018-Jun-17 10:58N 54°32' E 018°33'0 0.0
2018-Jun-17 10:28N 54°32' E 018°33'0 0.0
2018-Jun-17 09:58N 54°32' E 018°33'0 0.0
2018-Jun-17 09:29N 54°32' E 018°33'0 0.0
2018-Jun-17 08:58N 54°32' E 018°33'0 0.0
2018-Jun-17 08:28N 54°32' E 018°33'0 0.0
2018-Jun-17 07:58N 54°32' E 018°33'0 0.0
2018-Jun-17 07:26N 54°32' E 018°33'0 0.0
2018-Jun-17 06:59N 54°32' E 018°33'0 0.0
2018-Jun-17 06:29N 54°32' E 018°33'0 0.0
2018-Jun-17 05:59N 54°32' E 018°33'0 0.0
2018-Jun-17 05:29N 54°32' E 018°33'0 0.0
2018-Jun-17 04:59N 54°32' E 018°33'0 0.0
2018-Jun-17 04:29N 54°32' E 018°33'0 0.0
2018-Jun-17 03:59N 54°32' E 018°33'0 0.0
2018-Jun-17 03:29N 54°32' E 018°33'0 0.0
2018-Jun-17 02:59N 54°32' E 018°33'0 0.0
2018-Jun-17 02:29N 54°32' E 018°33'0 0.0
2018-Jun-17 01:59N 54°32' E 018°33'0 0.0
2018-Jun-17 01:29N 54°32' E 018°33'0 0.0
2018-Jun-17 00:59N 54°32' E 018°33'0 0.0
2018-Jun-17 00:29N 54°32' E 018°33'0 0.0
2018-Jun-16 23:59N 54°32' E 018°33'0 0.0
2018-Jun-16 23:29N 54°32' E 018°33'0 0.0
2018-Jun-16 22:59N 54°32' E 018°33'0 0.0
2018-Jun-16 22:29N 54°32' E 018°33'0 0.0
2018-Jun-16 21:59N 54°32' E 018°33'0 0.0
2018-Jun-16 21:29N 54°32' E 018°33'0 0.0
2018-Jun-16 20:59N 54°32' E 018°33'0 0.0
2018-Jun-16 20:29N 54°32' E 018°33'0 0.0
2018-Jun-16 19:59N 54°32' E 018°33'0 0.0
2018-Jun-16 19:29N 54°32' E 018°33'0 0.0
2018-Jun-16 18:59N 54°32' E 018°33'0 0.0
2018-Jun-16 18:29N 54°32' E 018°33'0 0.0
2018-Jun-16 17:59N 54°32' E 018°33'0 0.0
2018-Jun-16 17:29N 54°32' E 018°33'0 0.0
2018-Jun-16 16:59N 54°32' E 018°33'0 0.0
2018-Jun-16 16:29N 54°32' E 018°33'0 0.0
2018-Jun-16 15:59N 54°32' E 018°33'0 0.0
2018-Jun-16 15:29N 54°32' E 018°33'0 0.0
2018-Jun-16 14:59N 54°32' E 018°33'0 0.0
2018-Jun-16 14:29N 54°32' E 018°33'0 0.0
2018-Jun-16 13:59N 54°32' E 018°33'0 0.0
2018-Jun-16 13:29N 54°32' E 018°33'0 0.0
2018-Jun-16 12:59N 54°32' E 018°33'0 0.0
2018-Jun-16 12:29N 54°32' E 018°33'0 0.0
2018-Jun-16 11:59N 54°32' E 018°33'0 0.0
2018-Jun-16 11:29N 54°32' E 018°33'0 0.0
2018-Jun-16 10:59N 54°32' E 018°33'0 0.0
2018-Jun-16 10:29N 54°32' E 018°33'0 0.0
2018-Jun-16 09:59N 54°32' E 018°33'0 0.0
2018-Jun-16 09:29N 54°32' E 018°33'0 0.0
2018-Jun-16 08:59N 54°32' E 018°33'0 0.0
2018-Jun-16 08:29N 54°32' E 018°33'0 0.0
2018-Jun-16 07:59N 54°32' E 018°33'0 0.0
2018-Jun-16 07:28N 54°32' E 018°33'0 0.0
2018-Jun-16 06:58N 54°32' E 018°33'0 0.0
2018-Jun-16 06:28N 54°32' E 018°33'0 0.0
2018-Jun-16 05:58N 54°32' E 018°33'0 0.0
2018-Jun-16 05:28N 54°32' E 018°33'0 0.0
2018-Jun-16 04:58N 54°32' E 018°33'0 0.0
2018-Jun-16 04:29N 54°32' E 018°33'0 0.0
2018-Jun-16 03:58N 54°32' E 018°33'0 0.0
2018-Jun-16 03:28N 54°32' E 018°33'0 0.0
2018-Jun-16 02:58N 54°32' E 018°33'0 0.0
2018-Jun-16 02:28N 54°32' E 018°33'0 0.0
2018-Jun-16 01:58N 54°32' E 018°33'0 0.0
2018-Jun-16 01:28N 54°32' E 018°33'0 0.0
2018-Jun-16 00:58N 54°32' E 018°33'0 0.0
2018-Jun-16 00:28N 54°32' E 018°33'0 0.0
2018-Jun-15 23:58N 54°32' E 018°33'0 0.0
2018-Jun-15 23:28N 54°32' E 018°33'0 0.0
2018-Jun-15 22:58N 54°32' E 018°33'0 0.0
2018-Jun-15 22:28N 54°32' E 018°33'0 0.0
2018-Jun-15 21:58N 54°32' E 018°33'0 0.0
2018-Jun-15 21:28N 54°32' E 018°33'0 0.0
2018-Jun-15 20:58N 54°32' E 018°33'0 0.0
2018-Jun-15 20:28N 54°32' E 018°33'0 0.0
2018-Jun-15 19:58N 54°32' E 018°33'0 0.0
2018-Jun-15 19:28N 54°32' E 018°33'0 0.0
2018-Jun-15 18:58N 54°32' E 018°33'0 0.0
2018-Jun-15 18:28N 54°32' E 018°33'0 0.0
2018-Jun-15 17:58N 54°32' E 018°33'0 0.0
2018-Jun-15 17:28N 54°32' E 018°33'0 0.0
2018-Jun-15 16:58N 54°32' E 018°33'0 0.0
2018-Jun-15 16:28N 54°32' E 018°33'0 0.0
2018-Jun-15 15:58N 54°32' E 018°33'0 0.0
2018-Jun-15 15:28N 54°32' E 018°33'0 0.0
2018-Jun-15 14:58N 54°32' E 018°33'0 0.0
2018-Jun-15 14:28N 54°32' E 018°33'0 0.0
2018-Jun-15 13:58N 54°32' E 018°33'0 0.0
2018-Jun-15 13:28N 54°32' E 018°33'0 0.0
2018-Jun-15 12:58N 54°32' E 018°33'0 0.0
2018-Jun-15 12:28N 54°32' E 018°33'0 0.0
2018-Jun-15 11:58N 54°32' E 018°33'0 0.0
2018-Jun-15 11:28N 54°32' E 018°33'0 0.0
2018-Jun-15 10:58N 54°32' E 018°33'0 0.0
2018-Jun-15 10:28N 54°32' E 018°33'0 0.0
2018-Jun-15 09:58N 54°32' E 018°33'0 0.0
2018-Jun-15 09:28N 54°32' E 018°33'0 0.0
2018-Jun-15 08:58N 54°32' E 018°33'0 0.0
2018-Jun-15 08:28N 54°32' E 018°33'0 0.0
2018-Jun-15 07:58N 54°32' E 018°33'0 0.0
2018-Jun-15 07:28N 54°32' E 018°33'0 0.0
2018-Jun-15 06:58N 54°32' E 018°33'0 0.0
2018-Jun-15 06:28N 54°32' E 018°33'0 0.0
2018-Jun-15 05:58N 54°32' E 018°33'0 0.0
2018-Jun-15 05:28N 54°32' E 018°33'0 0.0
2018-Jun-15 04:58N 54°32' E 018°33'0 0.0
2018-Jun-15 04:28N 54°32' E 018°33'0 0.0
2018-Jun-15 03:58N 54°32' E 018°33'0 0.0
2018-Jun-15 03:28N 54°32' E 018°33'0 0.0
2018-Jun-15 02:58N 54°32' E 018°33'0 0.0
2018-Jun-15 02:31N 54°32' E 018°33'0 0.0
2018-Jun-15 02:01N 54°32' E 018°33'0 0.0
2018-Jun-15 01:30N 54°32' E 018°33'0 0.0
2018-Jun-15 01:00N 54°32' E 018°33'0 0.0
2018-Jun-15 00:30N 54°32' E 018°33'0 0.0
2018-Jun-15 00:00N 54°32' E 018°33'0 0.0
2018-Jun-14 23:30N 54°32' E 018°33'0 0.0
2018-Jun-14 23:00N 54°32' E 018°33'0 0.0
2018-Jun-14 22:30N 54°32' E 018°33'0 0.0
2018-Jun-14 22:00N 54°32' E 018°33'0 0.0
2018-Jun-14 21:30N 54°32' E 018°33'0 0.0
2018-Jun-14 21:00N 54°32' E 018°33'0 0.0
2018-Jun-14 20:30N 54°32' E 018°33'0 0.0
2018-Jun-14 20:00N 54°32' E 018°33'0 0.0
2018-Jun-14 19:30N 54°32' E 018°33'0 0.0
2018-Jun-14 19:00N 54°32' E 018°33'0 0.0
2018-Jun-14 18:30N 54°32' E 018°33'0 0.0
2018-Jun-14 18:00N 54°32' E 018°33'0 0.0
2018-Jun-14 17:30N 54°32' E 018°33'0 0.0
2018-Jun-14 17:00N 54°32' E 018°33'0 0.0
2018-Jun-14 16:30N 54°32' E 018°33'0 0.0
2018-Jun-14 16:00N 54°32' E 018°33'0 0.0
2018-Jun-14 15:30N 54°32' E 018°33'0 0.0
2018-Jun-14 15:00N 54°32' E 018°33'0 0.0
2018-Jun-14 14:30N 54°32' E 018°33'0 0.0
2018-Jun-14 14:00N 54°32' E 018°33'0 0.0
2018-Jun-14 13:30N 54°32' E 018°33'0 0.0
2018-Jun-14 13:00N 54°32' E 018°33'0 0.0
2018-Jun-14 12:30N 54°32' E 018°33'0 0.0
2018-Jun-14 12:00N 54°32' E 018°33'0 0.0
2018-Jun-14 11:30N 54°32' E 018°33'0 0.0
2018-Jun-14 11:00N 54°32' E 018°33'0 0.0
2018-Jun-14 10:30N 54°32' E 018°33'0 0.0
2018-Jun-14 10:00N 54°32' E 018°33'0 0.0
2018-Jun-14 09:30N 54°32' E 018°33'0 0.0
2018-Jun-14 09:00N 54°32' E 018°33'0 0.0
2018-Jun-14 08:30N 54°32' E 018°33'0 0.0
2018-Jun-14 08:00N 54°32' E 018°33'0 0.0
2018-Jun-14 07:30N 54°32' E 018°33'0 0.0
2018-Jun-14 07:00N 54°32' E 018°33'0 0.0
2018-Jun-14 06:30N 54°32' E 018°33'0 0.0
2018-Jun-14 06:00N 54°32' E 018°33'0 0.0
2018-Jun-14 05:30N 54°32' E 018°33'0 0.0
2018-Jun-14 05:00N 54°32' E 018°33'0 0.0
2018-Jun-14 04:30N 54°32' E 018°33'0 0.0
2018-Jun-14 04:00N 54°32' E 018°33'0 0.0
2018-Jun-14 03:30N 54°32' E 018°33'0 0.0
2018-Jun-14 03:00N 54°32' E 018°33'0 0.0
2018-Jun-14 02:30N 54°32' E 018°33'0 0.0
2018-Jun-14 02:00N 54°32' E 018°33'0 0.0
2018-Jun-14 01:30N 54°32' E 018°33'0 0.0
2018-Jun-14 01:00N 54°32' E 018°33'0 0.0
2018-Jun-14 00:30N 54°32' E 018°33'0 0.0
2018-Jun-14 00:00N 54°32' E 018°33'0 0.0
2018-Jun-13 23:30N 54°32' E 018°33'0 0.0
2018-Jun-13 23:00N 54°32' E 018°33'0 0.0
2018-Jun-13 22:30N 54°32' E 018°33'0 0.0
2018-Jun-13 22:00N 54°32' E 018°33'0 0.0
2018-Jun-13 21:30N 54°32' E 018°33'0 0.0
2018-Jun-13 21:00N 54°32' E 018°33'0 0.0
2018-Jun-13 20:30N 54°32' E 018°33'0 0.0
2018-Jun-13 20:00N 54°32' E 018°33'0 0.0
2018-Jun-13 19:30N 54°32' E 018°33'0 0.0
2018-Jun-13 18:59N 54°32' E 018°33'0 0.0
2018-Jun-13 18:29N 54°32' E 018°33'0 0.0
2018-Jun-13 17:59N 54°32' E 018°33'0 0.0
2018-Jun-13 17:29N 54°32' E 018°33'0 0.0
2018-Jun-13 16:59N 54°32' E 018°33'0 0.0
2018-Jun-13 16:29N 54°32' E 018°33'0 0.0
2018-Jun-13 15:59N 54°32' E 018°33'0 0.0
2018-Jun-13 15:29N 54°32' E 018°33'0 0.0
2018-Jun-13 14:59N 54°32' E 018°33'0 0.0
2018-Jun-13 14:29N 54°32' E 018°33'0 0.0
2018-Jun-13 13:59N 54°32' E 018°33'0 0.0
2018-Jun-13 13:29N 54°32' E 018°33'0 0.0
2018-Jun-13 12:59N 54°32' E 018°33'0 0.0
2018-Jun-13 12:26N 54°32' E 018°33'0 0.0
2018-Jun-13 11:59N 54°32' E 018°33'0 0.0
2018-Jun-13 11:29N 54°32' E 018°33'0 0.0
2018-Jun-13 10:59N 54°32' E 018°33'0 0.0
2018-Jun-13 10:29N 54°32' E 018°33'0 0.0
2018-Jun-13 09:56N 54°32' E 018°33'0 0.0
2018-Jun-13 09:29N 54°32' E 018°33'0 0.0
2018-Jun-13 08:59N 54°32' E 018°33'0 0.0
2018-Jun-13 08:29N 54°32' E 018°33'0 0.0
2018-Jun-13 07:59N 54°32' E 018°33'0 0.0
2018-Jun-13 07:29N 54°32' E 018°33'0 0.0
2018-Jun-13 06:59N 54°32' E 018°33'0 0.0
2018-Jun-13 06:29N 54°32' E 018°33'0 0.0
2018-Jun-13 05:59N 54°32' E 018°33'0 0.0
2018-Jun-13 05:29N 54°32' E 018°33'0 0.0
2018-Jun-13 04:59N 54°32' E 018°33'0 0.0
2018-Jun-13 04:29N 54°32' E 018°33'0 0.0
2018-Jun-13 03:59N 54°32' E 018°33'0 0.0
2018-Jun-13 03:29N 54°32' E 018°33'0 0.0
2018-Jun-13 02:59N 54°32' E 018°33'0 0.0
2018-Jun-13 02:29N 54°32' E 018°33'0 0.0
2018-Jun-13 01:59N 54°32' E 018°33'0 0.0
2018-Jun-13 01:29N 54°32' E 018°33'0 0.0
2018-Jun-13 00:59N 54°32' E 018°33'0 0.0
2018-Jun-13 00:29N 54°32' E 018°33'0 0.0
2018-Jun-12 23:59N 54°32' E 018°33'0 0.0
2018-Jun-12 23:29N 54°32' E 018°33'0 0.0
2018-Jun-12 22:59N 54°32' E 018°33'0 0.0
2018-Jun-12 22:29N 54°32' E 018°33'0 0.0
2018-Jun-12 21:59N 54°32' E 018°33'0 0.0
2018-Jun-12 21:29N 54°32' E 018°33'0 0.0
2018-Jun-12 20:59N 54°32' E 018°33'0 0.0
2018-Jun-12 20:29N 54°32' E 018°33'0 0.0
2018-Jun-12 19:59N 54°32' E 018°33'0 0.0
2018-Jun-12 19:29N 54°32' E 018°33'0 0.0
2018-Jun-12 18:59N 54°32' E 018°33'0 0.0
2018-Jun-12 18:26N 54°32' E 018°33'0 0.0
2018-Jun-12 17:59N 54°32' E 018°33'0 0.0
2018-Jun-12 17:29N 54°32' E 018°33'0 0.0
2018-Jun-12 16:59N 54°32' E 018°33'0 0.0
2018-Jun-12 16:29N 54°32' E 018°33'0 0.0
2018-Jun-12 15:59N 54°32' E 018°33'0 0.0
2018-Jun-12 15:29N 54°32' E 018°33'0 0.0
2018-Jun-12 14:59N 54°32' E 018°33'0 0.0
2018-Jun-12 14:29N 54°32' E 018°33'0 0.0
2018-Jun-12 13:59N 54°32' E 018°33'0 0.0
2018-Jun-12 13:29N 54°32' E 018°33'0 0.0
2018-Jun-12 12:59N 54°32' E 018°33'0 0.0
2018-Jun-12 12:28N 54°32' E 018°33'0 0.0
2018-Jun-12 11:59N 54°32' E 018°33'0 0.0
2018-Jun-12 11:29N 54°32' E 018°33'0 0.0
2018-Jun-12 10:59N 54°32' E 018°33'0 0.0
2018-Jun-12 10:28N 54°32' E 018°33'0 0.0
2018-Jun-12 09:58N 54°32' E 018°33'0 0.0
2018-Jun-12 09:28N 54°32' E 018°33'0 0.0
2018-Jun-12 08:58N 54°32' E 018°33'0 0.0
2018-Jun-12 08:25N 54°32' E 018°33'0 0.0
2018-Jun-12 07:55N 54°32' E 018°33'0 0.0
2018-Jun-12 07:22N 54°32' E 018°33'0 0.0
2018-Jun-12 06:58N 54°32' E 018°33'0 0.0
2018-Jun-12 06:28N 54°32' E 018°33'0 0.0
2018-Jun-12 05:58N 54°32' E 018°33'0 0.0
2018-Jun-12 05:28N 54°32' E 018°33'0 0.0
2018-Jun-12 04:58N 54°32' E 018°33'0 0.0
2018-Jun-12 04:28N 54°32' E 018°33'0 0.0
2018-Jun-12 03:58N 54°32' E 018°33'0 0.0
2018-Jun-12 03:28N 54°32' E 018°33'0 0.0
2018-Jun-12 02:58N 54°32' E 018°33'0 0.0
2018-Jun-12 02:28N 54°32' E 018°33'0 0.0
2018-Jun-12 01:58N 54°32' E 018°33'0 0.0
2018-Jun-12 01:28N 54°32' E 018°33'0 0.0
2018-Jun-12 00:58N 54°32' E 018°33'0 0.0
2018-Jun-12 00:28N 54°32' E 018°33'0 0.0
2018-Jun-11 23:58N 54°32' E 018°33'0 0.0
2018-Jun-11 23:28N 54°32' E 018°33'0 0.0
2018-Jun-11 22:58N 54°32' E 018°33'0 0.0
2018-Jun-11 22:28N 54°32' E 018°33'0 0.0
2018-Jun-11 21:58N 54°32' E 018°33'0 0.0
2018-Jun-11 21:28N 54°32' E 018°33'0 0.0
2018-Jun-11 20:58N 54°32' E 018°33'0 0.0
2018-Jun-11 20:28N 54°32' E 018°33'0 0.0
2018-Jun-11 19:58N 54°32' E 018°33'0 0.0
2018-Jun-11 19:28N 54°32' E 018°33'0 0.0
2018-Jun-11 18:58N 54°32' E 018°33'0 0.0
2018-Jun-11 18:28N 54°32' E 018°33'0 0.0
2018-Jun-11 17:58N 54°32' E 018°33'0 0.0
2018-Jun-11 17:28N 54°32' E 018°33'0 0.0
2018-Jun-11 17:00N 54°32' E 018°33'0 0.0
2018-Jun-11 16:30N 54°32' E 018°33'1 2.3
2018-Jun-11 16:00N 54°32' E 018°34'3 6.4
2018-Jun-11 15:30N 54°32' E 018°40'3 6.1
2018-Jun-11 15:00N 54°32' E 018°45'4 8.4
2018-Jun-11 14:30N 54°35' E 018°51'612.1
2018-Jun-11 14:00N 54°40' E 018°56'612.9
2018-Jun-11 13:30N 54°46' E 018°60'612.7
2018-Jun-11 13:00N 54°51' E 018°53'713.4
2018-Jun-11 12:30N 54°55' E 018°43'713.1
2018-Jun-11 12:01N 54°59' E 018°34'812.6
2018-Jun-11 11:22N 54°59' E 018°20'712.9
2018-Jun-11 10:50N 54°58' E 018°08'10012.8
2018-Jun-11 03:01N 54°40' E 015°17'1112.9
2018-Jun-11 02:10N 54°39' E 014°59'312.9
2018-Jun-11 01:56N 54°38' E 014°53'612.7
2018-Jun-11 01:26N 54°37' E 014°43'612.7
2018-Jun-11 00:57N 54°36' E 014°32'512.3
2018-Jun-11 00:30N 54°36' E 014°23'712.6
2018-Jun-10 23:58N 54°38' E 014°12'1412.6
2018-Jun-10 22:53N 54°42' E 013°49'912.7
2018-Jun-10 22:09N 54°45' E 013°34'513.4
2018-Jun-10 21:47N 54°45' E 013°25'1912.9
2018-Jun-10 20:19N 54°45' E 012°52'612.3
2018-Jun-10 19:50N 54°44' E 012°42'412.4
2018-Jun-10 19:30N 54°42' E 012°36'612.5
2018-Jun-10 19:00N 54°38' E 012°27'612.2
2018-Jun-10 18:30N 54°36' E 012°18'510.4
2018-Jun-10 18:00N 54°31' E 012°15'510.0
2018-Jun-10 17:30N 54°26' E 012°11'611.4
2018-Jun-10 17:00N 54°24' E 012°02'612.5
2018-Jun-10 16:30N 54°25' E 011°51'612.5
2018-Jun-10 16:00N 54°27' E 011°41'612.6
2018-Jun-10 15:30N 54°29' E 011°31'612.4
2018-Jun-10 15:00N 54°32' E 011°21'612.6
2018-Jun-10 14:30N 54°35' E 011°12'1212.3
2018-Jun-10 13:30N 54°41' E 010°53'5 9.8
2018-Jun-10 13:00N 54°45' E 010°49'510.0
2018-Jun-10 12:30N 54°50' E 010°50'510.0
2018-Jun-10 12:00N 54°55' E 010°52'611.5
2018-Jun-10 11:30N 54°59' E 010°59'612.3
2018-Jun-10 11:00N 55°05' E 011°02'612.4
2018-Jun-10 10:30N 55°11' E 011°04'611.7
2018-Jun-10 10:00N 55°17' E 011°03'612.4
2018-Jun-10 09:30N 55°23' E 011°01'612.7
2018-Jun-10 09:00N 55°28' E 010°55'612.5
2018-Jun-10 08:30N 55°34' E 010°50'612.4
2018-Jun-10 08:00N 55°40' E 010°47'712.8
2018-Jun-10 07:30N 55°46' E 010°48'612.0
2018-Jun-10 07:00N 55°52' E 010°52'612.5
2018-Jun-10 06:29N 55°57' E 010°59'511.2
2018-Jun-10 06:00N 56°01' E 011°04'5 9.3
2018-Jun-10 05:30N 56°05' E 011°08'510.4
2018-Jun-10 05:00N 56°09' E 011°14'612.1
2018-Jun-10 04:29N 56°15' E 011°20'612.5
2018-Jun-10 04:00N 56°20' E 011°26'612.3
2018-Jun-10 03:31N 56°25' E 011°31'612.6
2018-Jun-10 03:00N 56°31' E 011°37'612.2
2018-Jun-10 02:30N 56°36' E 011°42'612.3
2018-Jun-10 02:00N 56°41' E 011°47'611.7
2018-Jun-10 01:30N 56°47' E 011°51'  
Track history (hours):
 
Tides and Currents Weather Stations Pressure Air Temp Water Temp Dewpoint Dewpoint Depression Visibility Wind Speed Wind Dir Waves Ship Positions

Ocean Exporter

Last reported at 2018-Jun-20 01:16 UTC. Time now 2018-Jun-21 13:50 UTC.
Position N 58°49' E 004°29'.

Length 169 m; draft 5.3 m.

Type: Cargo ship. MMSI: 477980000.

Date/timePositionNaut miles runAvg speedWind from/ knotsBaromVisibWave heightAir tempDewpointWater temp
2018-Jun-20 01:16N 58°49' E 004°29'3 9.8
2018-Jun-20 00:55N 58°47' E 004°34'4 8.9
2018-Jun-20 00:30N 58°44' E 004°39'4 9.2
2018-Jun-20 00:00N 58°41' E 004°46'6 9.7
2018-Jun-19 23:24N 58°37' E 004°54'4 9.4
2018-Jun-19 23:00N 58°34' E 004°59'5 9.4
2018-Jun-19 22:29N 58°31' E 005°05'5 9.2
2018-Jun-19 21:59N 58°28' E 005°12'4 9.2
2018-Jun-19 21:30N 58°24' E 005°18'5 9.2
2018-Jun-19 20:59N 58°21' E 005°24'4 8.3
2018-Jun-19 20:30N 58°19' E 005°30'4 8.1
2018-Jun-19 20:00N 58°16' E 005°36'4 7.8
2018-Jun-19 19:30N 58°14' E 005°42'4 7.5
2018-Jun-19 19:00N 58°11' E 005°47'4 7.3
2018-Jun-19 18:30N 58°09' E 005°52'3 6.7
2018-Jun-19 18:00N 58°06' E 005°57'3 6.1
2018-Jun-19 17:30N 58°05' E 006°02'3 5.6
2018-Jun-19 17:00N 58°03' E 006°05'3 5.2
2018-Jun-19 16:30N 58°01' E 006°09'3 5.2
2018-Jun-19 16:00N 57°59' E 006°13'3 5.2
2018-Jun-19 15:29N 57°57' E 006°16'3 5.1
2018-Jun-19 14:57N 57°55' E 006°20'2 5.0
2018-Jun-19 14:27N 57°53' E 006°23'11 7.2
2018-Jun-19 12:56N 57°48' E 006°40'510.8
2018-Jun-19 12:28N 57°47' E 006°50'511.7
2018-Jun-19 12:00N 57°47' E 006°60'612.3
2018-Jun-19 11:30N 57°47' E 007°12'612.5
2018-Jun-19 10:59N 57°46' E 007°24'612.4
2018-Jun-19 10:30N 57°46' E 007°35'612.3
2018-Jun-19 10:00N 57°46' E 007°46'612.1
2018-Jun-19 09:30N 57°46' E 007°58'611.8
2018-Jun-19 09:00N 57°45' E 008°09'8811.0
2018-Jun-19 01:03N 57°46' E 010°53'113.0
2018-Jun-19 00:59N 57°45' E 010°54'612.8
2018-Jun-19 00:29N 57°40' E 011°02'613.0
2018-Jun-19 00:00N 57°36' E 011°10'612.5
2018-Jun-18 23:30N 57°32' E 011°19'612.1
2018-Jun-18 23:00N 57°27' E 011°27'612.7
2018-Jun-18 22:30N 57°22' E 011°31'612.7
2018-Jun-18 22:00N 57°15' E 011°35'7012.6
2018-Jun-18 16:27N 56°11' E 012°24'612.5
2018-Jun-18 16:00N 56°07' E 012°32'510.4
2018-Jun-18 15:30N 56°04' E 012°39'5 9.0
2018-Jun-18 15:00N 55°59' E 012°41'611.5
2018-Jun-18 14:30N 55°54' E 012°44'611.9
2018-Jun-18 14:00N 55°48' E 012°47'612.0
2018-Jun-18 13:30N 55°43' E 012°53'510.1
2018-Jun-18 13:00N 55°38' E 012°55'510.6
2018-Jun-18 12:30N 55°34' E 012°49'510.7
2018-Jun-18 12:00N 55°30' E 012°43'5 9.8
2018-Jun-18 11:30N 55°25' E 012°42'612.5
2018-Jun-18 11:00N 55°19' E 012°42'713.6
2018-Jun-18 10:30N 55°16' E 012°53'713.5
2018-Jun-18 10:00N 55°12' E 013°03'7812.6
2018-Jun-18 03:49N 54°42' E 015°08'5113.9
2018-Jun-18 00:10N 54°50' E 016°35'214.1
2018-Jun-18 00:00N 54°50' E 016°40'3914.0
2018-Jun-17 21:14N 54°57' E 017°46'513.7
2018-Jun-17 20:54N 54°57' E 017°54'613.5
2018-Jun-17 20:29N 54°58' E 018°03'713.6
2018-Jun-17 20:00N 54°58' E 018°15'713.8
2018-Jun-17 19:30N 54°59' E 018°27'612.5
2018-Jun-17 18:59N 54°58' E 018°38'613.0
2018-Jun-17 18:30N 54°54' E 018°47'713.2
2018-Jun-17 18:00N 54°50' E 018°56'612.9
2018-Jun-17 17:30N 54°44' E 019°01'612.0
2018-Jun-17 17:00N 54°38' E 018°56'4 9.0
2018-Jun-17 16:30N 54°34' E 018°53'612.0
2018-Jun-17 16:00N 54°31' E 018°44'510.0
2018-Jun-17 15:31N 54°32' E 018°35'2 3.2
2018-Jun-17 15:01N 54°32' E 018°33'0 0.0
2018-Jun-17 14:29N 54°32' E 018°33'0 0.0
2018-Jun-17 13:59N 54°32' E 018°33'0 0.0
2018-Jun-17 13:29N 54°32' E 018°33'0 0.0
2018-Jun-17 12:59N 54°32' E 018°33'0 0.0
2018-Jun-17 12:29N 54°32' E 018°33'0 0.0
2018-Jun-17 11:59N 54°32' E 018°33'0 0.0
2018-Jun-17 11:28N 54°32' E 018°33'0 0.0
2018-Jun-17 10:58N 54°32' E 018°33'0 0.0
2018-Jun-17 10:28N 54°32' E 018°33'0 0.0
2018-Jun-17 09:58N 54°32' E 018°33'0 0.0
2018-Jun-17 09:29N 54°32' E 018°33'0 0.0
2018-Jun-17 08:58N 54°32' E 018°33'0 0.0
2018-Jun-17 08:28N 54°32' E 018°33'0 0.0
2018-Jun-17 07:58N 54°32' E 018°33'0 0.0
2018-Jun-17 07:26N 54°32' E 018°33'0 0.0
2018-Jun-17 06:59N 54°32' E 018°33'0 0.0
2018-Jun-17 06:29N 54°32' E 018°33'0 0.0
2018-Jun-17 05:59N 54°32' E 018°33'0 0.0
2018-Jun-17 05:29N 54°32' E 018°33'0 0.0
2018-Jun-17 04:59N 54°32' E 018°33'0 0.0
2018-Jun-17 04:29N 54°32' E 018°33'0 0.0
2018-Jun-17 03:59N 54°32' E 018°33'0 0.0
2018-Jun-17 03:29N 54°32' E 018°33'0 0.0
2018-Jun-17 02:59N 54°32' E 018°33'0 0.0
2018-Jun-17 02:29N 54°32' E 018°33'0 0.0
2018-Jun-17 01:59N 54°32' E 018°33'0 0.0
2018-Jun-17 01:29N 54°32' E 018°33'0 0.0
2018-Jun-17 00:59N 54°32' E 018°33'0 0.0
2018-Jun-17 00:29N 54°32' E 018°33'0 0.0
2018-Jun-16 23:59N 54°32' E 018°33'0 0.0
2018-Jun-16 23:29N 54°32' E 018°33'0 0.0
2018-Jun-16 22:59N 54°32' E 018°33'0 0.0
2018-Jun-16 22:29N 54°32' E 018°33'0 0.0
2018-Jun-16 21:59N 54°32' E 018°33'0 0.0
2018-Jun-16 21:29N 54°32' E 018°33'0 0.0
2018-Jun-16 20:59N 54°32' E 018°33'0 0.0
2018-Jun-16 20:29N 54°32' E 018°33'0 0.0
2018-Jun-16 19:59N 54°32' E 018°33'0 0.0
2018-Jun-16 19:29N 54°32' E 018°33'0 0.0
2018-Jun-16 18:59N 54°32' E 018°33'0 0.0
2018-Jun-16 18:29N 54°32' E 018°33'0 0.0
2018-Jun-16 17:59N 54°32' E 018°33'0 0.0
2018-Jun-16 17:29N 54°32' E 018°33'0 0.0
2018-Jun-16 16:59N 54°32' E 018°33'0 0.0
2018-Jun-16 16:29N 54°32' E 018°33'0 0.0
2018-Jun-16 15:59N 54°32' E 018°33'0 0.0
2018-Jun-16 15:29N 54°32' E 018°33'0 0.0
2018-Jun-16 14:59N 54°32' E 018°33'0 0.0
2018-Jun-16 14:29N 54°32' E 018°33'0 0.0
2018-Jun-16 13:59N 54°32' E 018°33'0 0.0
2018-Jun-16 13:29N 54°32' E 018°33'0 0.0
2018-Jun-16 12:59N 54°32' E 018°33'0 0.0
2018-Jun-16 12:29N 54°32' E 018°33'0 0.0
2018-Jun-16 11:59N 54°32' E 018°33'0 0.0
2018-Jun-16 11:29N 54°32' E 018°33'0 0.0
2018-Jun-16 10:59N 54°32' E 018°33'0 0.0
2018-Jun-16 10:29N 54°32' E 018°33'0 0.0
2018-Jun-16 09:59N 54°32' E 018°33'0 0.0
2018-Jun-16 09:29N 54°32' E 018°33'0 0.0
2018-Jun-16 08:59N 54°32' E 018°33'0 0.0
2018-Jun-16 08:29N 54°32' E 018°33'0 0.0
2018-Jun-16 07:59N 54°32' E 018°33'0 0.0
2018-Jun-16 07:28N 54°32' E 018°33'0 0.0
2018-Jun-16 06:58N 54°32' E 018°33'0 0.0
2018-Jun-16 06:28N 54°32' E 018°33'0 0.0
2018-Jun-16 05:58N 54°32' E 018°33'0 0.0
2018-Jun-16 05:28N 54°32' E 018°33'0 0.0
2018-Jun-16 04:58N 54°32' E 018°33'0 0.0
2018-Jun-16 04:29N 54°32' E 018°33'0 0.0
2018-Jun-16 03:58N 54°32' E 018°33'0 0.0
2018-Jun-16 03:28N 54°32' E 018°33'0 0.0
2018-Jun-16 02:58N 54°32' E 018°33'0 0.0
2018-Jun-16 02:28N 54°32' E 018°33'0 0.0
2018-Jun-16 01:58N 54°32' E 018°33'0 0.0
2018-Jun-16 01:28N 54°32' E 018°33'0 0.0
2018-Jun-16 00:58N 54°32' E 018°33'0 0.0
2018-Jun-16 00:28N 54°32' E 018°33'0 0.0
2018-Jun-15 23:58N 54°32' E 018°33'0 0.0
2018-Jun-15 23:28N 54°32' E 018°33'0 0.0
2018-Jun-15 22:58N 54°32' E 018°33'0 0.0
2018-Jun-15 22:28N 54°32' E 018°33'0 0.0
2018-Jun-15 21:58N 54°32' E 018°33'0 0.0
2018-Jun-15 21:28N 54°32' E 018°33'0 0.0
2018-Jun-15 20:58N 54°32' E 018°33'0 0.0
2018-Jun-15 20:28N 54°32' E 018°33'0 0.0
2018-Jun-15 19:58N 54°32' E 018°33'0 0.0
2018-Jun-15 19:28N 54°32' E 018°33'0 0.0
2018-Jun-15 18:58N 54°32' E 018°33'0 0.0
2018-Jun-15 18:28N 54°32' E 018°33'0 0.0
2018-Jun-15 17:58N 54°32' E 018°33'0 0.0
2018-Jun-15 17:28N 54°32' E 018°33'0 0.0
2018-Jun-15 16:58N 54°32' E 018°33'0 0.0
2018-Jun-15 16:28N 54°32' E 018°33'0 0.0
2018-Jun-15 15:58N 54°32' E 018°33'0 0.0
2018-Jun-15 15:28N 54°32' E 018°33'0 0.0
2018-Jun-15 14:58N 54°32' E 018°33'0 0.0
2018-Jun-15 14:28N 54°32' E 018°33'0 0.0
2018-Jun-15 13:58N 54°32' E 018°33'0 0.0
2018-Jun-15 13:28N 54°32' E 018°33'0 0.0
2018-Jun-15 12:58N 54°32' E 018°33'0 0.0
2018-Jun-15 12:28N 54°32' E 018°33'0 0.0
2018-Jun-15 11:58N 54°32' E 018°33'0 0.0
2018-Jun-15 11:28N 54°32' E 018°33'0 0.0
2018-Jun-15 10:58N 54°32' E 018°33'0 0.0
2018-Jun-15 10:28N 54°32' E 018°33'0 0.0
2018-Jun-15 09:58N 54°32' E 018°33'0 0.0
2018-Jun-15 09:28N 54°32' E 018°33'0 0.0
2018-Jun-15 08:58N 54°32' E 018°33'0 0.0
2018-Jun-15 08:28N 54°32' E 018°33'0 0.0
2018-Jun-15 07:58N 54°32' E 018°33'0 0.0
2018-Jun-15 07:28N 54°32' E 018°33'0 0.0
2018-Jun-15 06:58N 54°32' E 018°33'0 0.0
2018-Jun-15 06:28N 54°32' E 018°33'0 0.0
2018-Jun-15 05:58N 54°32' E 018°33'0 0.0
2018-Jun-15 05:28N 54°32' E 018°33'0 0.0
2018-Jun-15 04:58N 54°32' E 018°33'0 0.0
2018-Jun-15 04:28N 54°32' E 018°33'0 0.0
2018-Jun-15 03:58N 54°32' E 018°33'0 0.0
2018-Jun-15 03:28N 54°32' E 018°33'0 0.0
2018-Jun-15 02:58N 54°32' E 018°33'0 0.0
2018-Jun-15 02:31N 54°32' E 018°33'0 0.0
2018-Jun-15 02:01N 54°32' E 018°33'0 0.0
2018-Jun-15 01:30N 54°32' E 018°33'0 0.0
2018-Jun-15 01:00N 54°32' E 018°33'0 0.0
2018-Jun-15 00:30N 54°32' E 018°33'0 0.0
2018-Jun-15 00:00N 54°32' E 018°33'0 0.0
2018-Jun-14 23:30N 54°32' E 018°33'0 0.0
2018-Jun-14 23:00N 54°32' E 018°33'0 0.0
2018-Jun-14 22:30N 54°32' E 018°33'0 0.0
2018-Jun-14 22:00N 54°32' E 018°33'0 0.0
2018-Jun-14 21:30N 54°32' E 018°33'0 0.0
2018-Jun-14 21:00N 54°32' E 018°33'0 0.0
2018-Jun-14 20:30N 54°32' E 018°33'0 0.0
2018-Jun-14 20:00N 54°32' E 018°33'0 0.0
2018-Jun-14 19:30N 54°32' E 018°33'0 0.0
2018-Jun-14 19:00N 54°32' E 018°33'0 0.0
2018-Jun-14 18:30N 54°32' E 018°33'0 0.0
2018-Jun-14 18:00N 54°32' E 018°33'0 0.0
2018-Jun-14 17:30N 54°32' E 018°33'0 0.0
2018-Jun-14 17:00N 54°32' E 018°33'0 0.0
2018-Jun-14 16:30N 54°32' E 018°33'0 0.0
2018-Jun-14 16:00N 54°32' E 018°33'0 0.0
2018-Jun-14 15:30N 54°32' E 018°33'0 0.0
2018-Jun-14 15:00N 54°32' E 018°33'0 0.0
2018-Jun-14 14:30N 54°32' E 018°33'0 0.0
2018-Jun-14 14:00N 54°32' E 018°33'0 0.0
2018-Jun-14 13:30N 54°32' E 018°33'0 0.0
2018-Jun-14 13:00N 54°32' E 018°33'0 0.0
2018-Jun-14 12:30N 54°32' E 018°33'0 0.0
2018-Jun-14 12:00N 54°32' E 018°33'0 0.0
2018-Jun-14 11:30N 54°32' E 018°33'0 0.0
2018-Jun-14 11:00N 54°32' E 018°33'0 0.0
2018-Jun-14 10:30N 54°32' E 018°33'0 0.0
2018-Jun-14 10:00N 54°32' E 018°33'0 0.0
2018-Jun-14 09:30N 54°32' E 018°33'0 0.0
2018-Jun-14 09:00N 54°32' E 018°33'0 0.0
2018-Jun-14 08:30N 54°32' E 018°33'0 0.0
2018-Jun-14 08:00N 54°32' E 018°33'0 0.0
2018-Jun-14 07:30N 54°32' E 018°33'0 0.0
2018-Jun-14 07:00N 54°32' E 018°33'0 0.0
2018-Jun-14 06:30N 54°32' E 018°33'0 0.0
2018-Jun-14 06:00N 54°32' E 018°33'0 0.0
2018-Jun-14 05:30N 54°32' E 018°33'0 0.0
2018-Jun-14 05:00N 54°32' E 018°33'0 0.0
2018-Jun-14 04:30N 54°32' E 018°33'0 0.0
2018-Jun-14 04:00N 54°32' E 018°33'0 0.0
2018-Jun-14 03:30N 54°32' E 018°33'0 0.0
2018-Jun-14 03:00N 54°32' E 018°33'0 0.0
2018-Jun-14 02:30N 54°32' E 018°33'0 0.0
2018-Jun-14 02:00N 54°32' E 018°33'0 0.0
2018-Jun-14 01:30N 54°32' E 018°33'0 0.0
2018-Jun-14 01:00N 54°32' E 018°33'0 0.0
2018-Jun-14 00:30N 54°32' E 018°33'0 0.0
2018-Jun-14 00:00N 54°32' E 018°33'0 0.0
2018-Jun-13 23:30N 54°32' E 018°33'0 0.0
2018-Jun-13 23:00N 54°32' E 018°33'0 0.0
2018-Jun-13 22:30N 54°32' E 018°33'0 0.0
2018-Jun-13 22:00N 54°32' E 018°33'0 0.0
2018-Jun-13 21:30N 54°32' E 018°33'0 0.0
2018-Jun-13 21:00N 54°32' E 018°33'0 0.0
2018-Jun-13 20:30N 54°32' E 018°33'0 0.0
2018-Jun-13 20:00N 54°32' E 018°33'0 0.0
2018-Jun-13 19:30N 54°32' E 018°33'0 0.0
2018-Jun-13 18:59N 54°32' E 018°33'0 0.0
2018-Jun-13 18:29N 54°32' E 018°33'0 0.0
2018-Jun-13 17:59N 54°32' E 018°33'0 0.0
2018-Jun-13 17:29N 54°32' E 018°33'0 0.0
2018-Jun-13 16:59N 54°32' E 018°33'0 0.0
2018-Jun-13 16:29N 54°32' E 018°33'0 0.0
2018-Jun-13 15:59N 54°32' E 018°33'0 0.0
2018-Jun-13 15:29N 54°32' E 018°33'0 0.0
2018-Jun-13 14:59N 54°32' E 018°33'0 0.0
2018-Jun-13 14:29N 54°32' E 018°33'0 0.0
2018-Jun-13 13:59N 54°32' E 018°33'0 0.0
2018-Jun-13 13:29N 54°32' E 018°33'0 0.0
2018-Jun-13 12:59N 54°32' E 018°33'0 0.0
2018-Jun-13 12:26N 54°32' E 018°33'0 0.0
2018-Jun-13 11:59N 54°32' E 018°33'0 0.0
2018-Jun-13 11:29N 54°32' E 018°33'0 0.0
2018-Jun-13 10:59N 54°32' E 018°33'0 0.0
2018-Jun-13 10:29N 54°32' E 018°33'0 0.0
2018-Jun-13 09:56N 54°32' E 018°33'0 0.0
2018-Jun-13 09:29N 54°32' E 018°33'0 0.0
2018-Jun-13 08:59N 54°32' E 018°33'0 0.0
2018-Jun-13 08:29N 54°32' E 018°33'0 0.0
2018-Jun-13 07:59N 54°32' E 018°33'0 0.0
2018-Jun-13 07:29N 54°32' E 018°33'0 0.0
2018-Jun-13 06:59N 54°32' E 018°33'0 0.0
2018-Jun-13 06:29N 54°32' E 018°33'0 0.0
2018-Jun-13 05:59N 54°32' E 018°33'0 0.0
2018-Jun-13 05:29N 54°32' E 018°33'0 0.0
2018-Jun-13 04:59N 54°32' E 018°33'0 0.0
2018-Jun-13 04:29N 54°32' E 018°33'0 0.0
2018-Jun-13 03:59N 54°32' E 018°33'0 0.0
2018-Jun-13 03:29N 54°32' E 018°33'0 0.0
2018-Jun-13 02:59N 54°32' E 018°33'0 0.0
2018-Jun-13 02:29N 54°32' E 018°33'0 0.0
2018-Jun-13 01:59N 54°32' E 018°33'0 0.0
2018-Jun-13 01:29N 54°32' E 018°33'0 0.0
2018-Jun-13 00:59N 54°32' E 018°33'0 0.0
2018-Jun-13 00:29N 54°32' E 018°33'0 0.0
2018-Jun-12 23:59N 54°32' E 018°33'0 0.0
2018-Jun-12 23:29N 54°32' E 018°33'0 0.0
2018-Jun-12 22:59N 54°32' E 018°33'0 0.0
2018-Jun-12 22:29N 54°32' E 018°33'0 0.0
2018-Jun-12 21:59N 54°32' E 018°33'0 0.0
2018-Jun-12 21:29N 54°32' E 018°33'0 0.0
2018-Jun-12 20:59N 54°32' E 018°33'0 0.0
2018-Jun-12 20:29N 54°32' E 018°33'0 0.0
2018-Jun-12 19:59N 54°32' E 018°33'0 0.0
2018-Jun-12 19:29N 54°32' E 018°33'0 0.0
2018-Jun-12 18:59N 54°32' E 018°33'0 0.0
2018-Jun-12 18:26N 54°32' E 018°33'0 0.0
2018-Jun-12 17:59N 54°32' E 018°33'0 0.0
2018-Jun-12 17:29N 54°32' E 018°33'0 0.0
2018-Jun-12 16:59N 54°32' E 018°33'0 0.0
2018-Jun-12 16:29N 54°32' E 018°33'0 0.0
2018-Jun-12 15:59N 54°32' E 018°33'0 0.0
2018-Jun-12 15:29N 54°32' E 018°33'0 0.0
2018-Jun-12 14:59N 54°32' E 018°33'0 0.0
2018-Jun-12 14:29N 54°32' E 018°33'0 0.0
2018-Jun-12 13:59N 54°32' E 018°33'0 0.0
2018-Jun-12 13:29N 54°32' E 018°33'0 0.0
2018-Jun-12 12:59N 54°32' E 018°33'0 0.0
2018-Jun-12 12:28N 54°32' E 018°33'0 0.0
2018-Jun-12 11:59N 54°32' E 018°33'0 0.0
2018-Jun-12 11:29N 54°32' E 018°33'0 0.0
2018-Jun-12 10:59N 54°32' E 018°33'0 0.0
2018-Jun-12 10:28N 54°32' E 018°33'0 0.0
2018-Jun-12 09:58N 54°32' E 018°33'0 0.0
2018-Jun-12 09:28N 54°32' E 018°33'0 0.0
2018-Jun-12 08:58N 54°32' E 018°33'0 0.0
2018-Jun-12 08:25N 54°32' E 018°33'0 0.0
2018-Jun-12 07:55N 54°32' E 018°33'0 0.0
2018-Jun-12 07:22N 54°32' E 018°33'0 0.0
2018-Jun-12 06:58N 54°32' E 018°33'0 0.0
2018-Jun-12 06:28N 54°32' E 018°33'0 0.0
2018-Jun-12 05:58N 54°32' E 018°33'0 0.0
2018-Jun-12 05:28N 54°32' E 018°33'0 0.0
2018-Jun-12 04:58N 54°32' E 018°33'0 0.0
2018-Jun-12 04:28N 54°32' E 018°33'0 0.0
2018-Jun-12 03:58N 54°32' E 018°33'0 0.0
2018-Jun-12 03:28N 54°32' E 018°33'0 0.0
2018-Jun-12 02:58N 54°32' E 018°33'0 0.0
2018-Jun-12 02:28N 54°32' E 018°33'0 0.0
2018-Jun-12 01:58N 54°32' E 018°33'0 0.0
2018-Jun-12 01:28N 54°32' E 018°33'0 0.0
2018-Jun-12 00:58N 54°32' E 018°33'0 0.0
2018-Jun-12 00:28N 54°32' E 018°33'0 0.0
2018-Jun-11 23:58N 54°32' E 018°33'0 0.0
2018-Jun-11 23:28N 54°32' E 018°33'0 0.0
2018-Jun-11 22:58N 54°32' E 018°33'0 0.0
2018-Jun-11 22:28N 54°32' E 018°33'0 0.0
2018-Jun-11 21:58N 54°32' E 018°33'0 0.0
2018-Jun-11 21:28N 54°32' E 018°33'0 0.0
2018-Jun-11 20:58N 54°32' E 018°33'0 0.0
2018-Jun-11 20:28N 54°32' E 018°33'0 0.0
2018-Jun-11 19:58N 54°32' E 018°33'0 0.0
2018-Jun-11 19:28N 54°32' E 018°33'0 0.0
2018-Jun-11 18:58N 54°32' E 018°33'0 0.0
2018-Jun-11 18:28N 54°32' E 018°33'0 0.0
2018-Jun-11 17:58N 54°32' E 018°33'0 0.0
2018-Jun-11 17:28N 54°32' E 018°33'0 0.0
2018-Jun-11 17:00N 54°32' E 018°33'0 0.0
2018-Jun-11 16:30N 54°32' E 018°33'1 2.3
2018-Jun-11 16:00N 54°32' E 018°34'3 6.4
2018-Jun-11 15:30N 54°32' E 018°40'3 6.1
2018-Jun-11 15:00N 54°32' E 018°45'4 8.4
2018-Jun-11 14:30N 54°35' E 018°51'612.1
2018-Jun-11 14:00N 54°40' E 018°56'612.9
2018-Jun-11 13:30N 54°46' E 018°60'612.7
2018-Jun-11 13:00N 54°51' E 018°53'713.4
2018-Jun-11 12:30N 54°55' E 018°43'713.1
2018-Jun-11 12:01N 54°59' E 018°34'812.6
2018-Jun-11 11:22N 54°59' E 018°20'712.9
2018-Jun-11 10:50N 54°58' E 018°08'10012.8
2018-Jun-11 03:01N 54°40' E 015°17'1112.9
2018-Jun-11 02:10N 54°39' E 014°59'312.9
2018-Jun-11 01:56N 54°38' E 014°53'612.7
2018-Jun-11 01:26N 54°37' E 014°43'612.7
2018-Jun-11 00:57N 54°36' E 014°32'512.3
2018-Jun-11 00:30N 54°36' E 014°23'712.6
2018-Jun-10 23:58N 54°38' E 014°12'1412.6
2018-Jun-10 22:53N 54°42' E 013°49'912.7
2018-Jun-10 22:09N 54°45' E 013°34'513.4
2018-Jun-10 21:47N 54°45' E 013°25'1912.9
2018-Jun-10 20:19N 54°45' E 012°52'612.3
2018-Jun-10 19:50N 54°44' E 012°42'412.4
2018-Jun-10 19:30N 54°42' E 012°36'612.5
2018-Jun-10 19:00N 54°38' E 012°27'612.2
2018-Jun-10 18:30N 54°36' E 012°18'510.4
2018-Jun-10 18:00N 54°31' E 012°15'510.0
2018-Jun-10 17:30N 54°26' E 012°11'611.4
2018-Jun-10 17:00N 54°24' E 012°02'612.5
2018-Jun-10 16:30N 54°25' E 011°51'612.5
2018-Jun-10 16:00N 54°27' E 011°41'612.6
2018-Jun-10 15:30N 54°29' E 011°31'612.4
2018-Jun-10 15:00N 54°32' E 011°21'612.6
2018-Jun-10 14:30N 54°35' E 011°12'1212.3
2018-Jun-10 13:30N 54°41' E 010°53'5 9.8
2018-Jun-10 13:00N 54°45' E 010°49'510.0
2018-Jun-10 12:30N 54°50' E 010°50'510.0
2018-Jun-10 12:00N 54°55' E 010°52'611.5
2018-Jun-10 11:30N 54°59' E 010°59'612.3
2018-Jun-10 11:00N 55°05' E 011°02'612.4
2018-Jun-10 10:30N 55°11' E 011°04'611.7
2018-Jun-10 10:00N 55°17' E 011°03'612.4
2018-Jun-10 09:30N 55°23' E 011°01'612.7
2018-Jun-10 09:00N 55°28' E 010°55'612.5
2018-Jun-10 08:30N 55°34' E 010°50'612.4
2018-Jun-10 08:00N 55°40' E 010°47'712.8
2018-Jun-10 07:30N 55°46' E 010°48'612.0
2018-Jun-10 07:00N 55°52' E 010°52'612.5
2018-Jun-10 06:29N 55°57' E 010°59'511.2
2018-Jun-10 06:00N 56°01' E 011°04'5 9.3
2018-Jun-10 05:30N 56°05' E 011°08'510.4
2018-Jun-10 05:00N 56°09' E 011°14'612.1
2018-Jun-10 04:29N 56°15' E 011°20'612.5
2018-Jun-10 04:00N 56°20' E 011°26'612.3
2018-Jun-10 03:31N 56°25' E 011°31'612.6
2018-Jun-10 03:00N 56°31' E 011°37'612.2
2018-Jun-10 02:30N 56°36' E 011°42'612.3
2018-Jun-10 02:00N 56°41' E 011°47'611.7
2018-Jun-10 01:30N 56°47' E 011°51'  

Dump ship's entire track history